createdAt,value
2023-03-17T00:00:35.845Z,52.31
2023-03-17T00:01:35.812Z,52.83
2023-03-17T00:02:35.849Z,52.11
2023-03-17T00:03:35.815Z,52.11
2023-03-17T00:06:35.763Z,51.58
2023-03-17T00:07:35.752Z,51.88
2023-03-17T00:08:35.745Z,51.50
2023-03-17T00:09:35.725Z,51.58
2023-03-17T00:10:35.723Z,51.58
2023-03-17T00:11:35.716Z,51.68
2023-03-17T00:13:35.682Z,51.68
2023-03-17T00:14:35.673Z,51.78
2023-03-17T00:16:35.676Z,51.58
2023-03-17T00:17:35.641Z,52.19
2023-03-17T00:18:35.626Z,52.01
2023-03-17T00:19:35.617Z,52.29
2023-03-17T00:20:35.608Z,51.68
2023-03-17T00:21:35.604Z,51.45
2023-03-17T00:22:35.590Z,51.15
2023-03-17T00:23:35.572Z,51.35
2023-03-17T00:30:35.500Z,50.82
2023-03-17T00:31:35.522Z,50.92
2023-03-17T00:32:35.534Z,50.92
2023-03-17T00:33:35.465Z,51.02
2023-03-17T00:34:35.453Z,50.82
2023-03-17T00:35:35.485Z,51.22
2023-03-17T00:36:35.441Z,51.63
2023-03-17T00:37:35.422Z,51.53
2023-03-17T00:38:35.411Z,51.86
2023-03-17T00:39:35.401Z,52.06
2023-03-17T00:40:35.388Z,51.96
2023-03-17T00:41:35.374Z,52.29
2023-03-17T00:42:35.370Z,52.60
2023-03-17T00:43:35.352Z,52.19
2023-03-17T00:46:35.487Z,52.29
2023-03-17T00:47:35.308Z,52.27
2023-03-17T00:48:35.317Z,52.60
2023-03-17T00:49:35.290Z,52.72
2023-03-17T00:50:35.277Z,53.03
2023-03-17T00:53:35.243Z,52.80
2023-03-17T00:54:35.232Z,52.50
2023-03-17T00:55:35.222Z,52.80
2023-03-17T00:56:35.215Z,52.70
2023-03-17T00:57:35.206Z,52.92
2023-03-17T00:58:35.200Z,52.90
2023-03-17T00:59:35.181Z,53.24
2023-03-17T01:02:35.145Z,53.87
2023-03-17T01:03:35.133Z,53.97
2023-03-17T01:04:35.153Z,53.87
2023-03-17T01:05:35.129Z,53.74
2023-03-17T01:06:35.101Z,54.07
2023-03-17T01:07:35.097Z,54.28
2023-03-17T01:08:35.081Z,54.28
2023-03-17T01:09:35.068Z,54.18
2023-03-17T01:10:35.063Z,54.51
2023-03-17T01:11:35.053Z,54.38
2023-03-17T01:13:35.024Z,54.91
2023-03-17T01:15:35.001Z,54.91
2023-03-17T01:17:34.981Z,55.02
2023-03-17T01:19:34.958Z,55.32
2023-03-17T01:21:34.936Z,55.76
2023-03-17T01:22:34.927Z,55.23
2023-03-17T01:23:34.924Z,54.82
2023-03-17T01:24:34.906Z,54.58
2023-03-17T01:25:34.908Z,54.28
2023-03-17T01:26:34.891Z,54.69
2023-03-17T01:28:34.884Z,54.58
2023-03-17T01:29:34.870Z,54.51
2023-03-17T01:30:34.852Z,54.28
2023-03-17T01:31:34.865Z,53.87
2023-03-17T01:32:34.851Z,53.36
2023-03-17T01:33:34.807Z,53.46
2023-03-17T01:34:34.796Z,53.03
2023-03-17T01:35:34.846Z,53.03
2023-03-17T01:36:34.815Z,53.26
2023-03-17T01:37:34.763Z,53.46
2023-03-17T01:38:34.755Z,52.92
2023-03-17T01:39:34.743Z,52.92
2023-03-17T01:40:34.734Z,53.03
2023-03-17T01:41:34.735Z,52.72
2023-03-17T01:42:34.712Z,53.03
2023-03-17T01:43:34.701Z,52.92
2023-03-17T01:44:34.693Z,52.92
2023-03-17T01:45:34.703Z,52.83
2023-03-17T01:48:34.648Z,53.46
2023-03-17T01:50:34.624Z,53.67
2023-03-17T01:51:34.610Z,53.57
2023-03-17T01:52:34.645Z,53.46
2023-03-17T01:53:34.596Z,54.00
2023-03-17T01:56:34.557Z,54.22
2023-03-17T01:58:34.550Z,53.79
2023-03-17T02:00:34.517Z,54.00
2023-03-17T02:01:34.502Z,54.43
2023-03-17T02:02:34.494Z,54.33
2023-03-17T02:03:34.480Z,54.13
2023-03-17T02:04:34.514Z,54.22
2023-03-17T02:06:35.843Z,54.63
2023-03-17T02:07:34.460Z,54.00
2023-03-17T02:08:34.455Z,54.33
2023-03-17T02:09:34.429Z,54.10
2023-03-17T02:12:34.381Z,53.69
2023-03-17T02:13:34.369Z,53.28
2023-03-17T02:14:34.360Z,53.18
2023-03-17T02:15:34.345Z,53.16
2023-03-17T02:16:34.392Z,52.85
2023-03-17T02:17:34.324Z,52.44
2023-03-17T02:18:34.331Z,52.31
2023-03-17T02:19:34.366Z,52.31
2023-03-17T02:20:34.298Z,52.22
2023-03-17T02:21:34.326Z,52.42
2023-03-17T02:22:34.268Z,52.42
2023-03-17T02:23:34.289Z,52.55
2023-03-17T02:24:34.302Z,52.55
2023-03-17T02:25:34.236Z,52.62
2023-03-17T02:27:34.222Z,52.42
2023-03-17T02:28:34.205Z,52.11
2023-03-17T02:29:34.190Z,51.93
2023-03-17T02:30:34.273Z,52.22
2023-03-17T02:31:34.174Z,51.91
2023-03-17T02:32:34.272Z,51.78
2023-03-17T02:33:34.151Z,52.42
2023-03-17T02:34:34.146Z,51.81
2023-03-17T02:35:34.207Z,52.01
2023-03-17T02:36:34.125Z,51.48
2023-03-17T02:37:34.112Z,51.17
2023-03-17T02:38:34.104Z,51.07
2023-03-17T02:39:34.086Z,51.17
2023-03-17T02:40:34.104Z,51.17
2023-03-17T02:41:34.064Z,51.17
2023-03-17T02:42:34.056Z,51.07
2023-03-17T02:43:34.044Z,50.97
2023-03-17T02:44:34.034Z,51.17
2023-03-17T02:45:34.021Z,51.17
2023-03-17T02:46:34.020Z,50.94
2023-03-17T02:47:34.001Z,50.61
2023-03-17T02:48:33.993Z,50.10
2023-03-17T02:49:33.981Z,50.10
2023-03-17T02:50:33.977Z,50.41
2023-03-17T02:51:33.965Z,50.51
2023-03-17T02:52:33.952Z,50.41
2023-03-17T02:53:33.942Z,50.84
2023-03-17T02:58:33.883Z,50.74
2023-03-17T02:59:33.872Z,50.76
2023-03-17T03:00:33.863Z,51.27
2023-03-17T03:01:33.935Z,51.60
2023-03-17T03:02:33.965Z,51.93
2023-03-17T03:03:33.828Z,52.47
2023-03-17T03:04:33.831Z,52.90
2023-03-17T03:05:33.804Z,53.10
2023-03-17T03:06:33.795Z,53.41
2023-03-17T03:07:33.783Z,53.51
2023-03-17T03:08:33.774Z,53.82
2023-03-17T03:09:33.760Z,53.72
2023-03-17T03:10:33.749Z,53.92
2023-03-17T03:11:33.737Z,54.35
2023-03-17T03:12:33.769Z,54.46
2023-03-17T03:13:33.716Z,54.26
2023-03-17T03:14:33.708Z,54.26
2023-03-17T03:15:33.754Z,54.35
2023-03-17T03:17:33.683Z,54.35
2023-03-17T03:19:33.657Z,54.66
2023-03-17T03:20:33.641Z,54.56
2023-03-17T03:21:33.628Z,54.89
2023-03-17T03:22:33.616Z,54.99
2023-03-17T03:24:33.598Z,54.99
2023-03-17T03:25:33.588Z,54.99
2023-03-17T03:26:33.575Z,54.99
2023-03-17T03:27:33.562Z,55.23
2023-03-17T03:28:33.584Z,55.53
2023-03-17T03:29:33.546Z,55.63
2023-03-17T03:30:33.537Z,55.51
2023-03-17T03:31:33.521Z,54.89
2023-03-17T03:32:33.558Z,54.69
2023-03-17T03:33:33.500Z,55.20
2023-03-17T03:34:33.493Z,55.43
2023-03-17T03:35:33.545Z,55.84
2023-03-17T03:36:33.469Z,55.96
2023-03-17T03:37:33.457Z,55.96
2023-03-17T03:38:33.448Z,55.96
2023-03-17T03:39:33.447Z,55.94
2023-03-17T03:40:33.428Z,55.84
2023-03-17T03:44:33.416Z,56.07
2023-03-17T03:45:33.368Z,55.87
2023-03-17T03:46:33.361Z,55.96
2023-03-17T03:47:33.346Z,56.30
2023-03-17T03:48:33.344Z,56.73
2023-03-17T03:49:33.326Z,56.94
2023-03-17T03:50:33.316Z,56.71
2023-03-17T03:51:33.301Z,56.28
2023-03-17T03:52:33.297Z,55.96
2023-03-17T03:53:33.282Z,55.87
2023-03-17T03:54:33.270Z,55.63
2023-03-17T03:55:33.255Z,55.76
2023-03-17T03:56:33.251Z,55.96
2023-03-17T03:57:33.234Z,55.87
2023-03-17T03:58:33.223Z,55.96
2023-03-17T03:59:33.216Z,56.40
2023-03-17T04:00:33.383Z,56.50
2023-03-17T04:02:33.232Z,56.94
2023-03-17T04:03:33.173Z,56.94
2023-03-17T04:04:33.207Z,57.14
2023-03-17T04:05:33.153Z,57.25
2023-03-17T04:06:33.140Z,57.04
2023-03-17T04:07:33.128Z,56.50
2023-03-17T04:08:33.121Z,56.50
2023-03-17T04:09:33.107Z,56.58
2023-03-17T04:10:33.193Z,56.37
2023-03-17T04:11:33.089Z,56.61
2023-03-17T04:12:33.072Z,56.40
2023-03-17T04:13:33.063Z,56.94
2023-03-17T04:14:33.049Z,57.35
2023-03-17T04:15:33.042Z,56.84
2023-03-17T04:16:33.169Z,56.71
2023-03-17T04:22:32.965Z,57.04
2023-03-17T04:24:32.941Z,56.71
2023-03-17T04:29:32.889Z,55.63
2023-03-17T04:30:33.255Z,55.74
2023-03-17T04:38:32.789Z,58.33
2023-03-17T04:39:32.779Z,58.53
2023-03-17T04:40:32.992Z,58.63
2023-03-17T04:41:32.757Z,58.33
2023-03-17T04:42:32.744Z,58.20
2023-03-17T04:43:32.733Z,58.30
2023-03-17T04:44:32.722Z,58.20
2023-03-17T04:45:32.737Z,58.20
2023-03-17T04:51:32.647Z,58.20
2023-03-17T04:52:32.637Z,57.79
2023-03-17T04:53:32.642Z,57.45
2023-03-17T04:54:32.616Z,56.94
2023-03-17T04:55:32.606Z,56.81
2023-03-17T04:57:32.587Z,55.96
2023-03-17T04:58:32.569Z,55.66
2023-03-17T04:59:32.565Z,55.32
2023-03-17T05:00:32.795Z,55.32
2023-03-17T05:01:32.539Z,55.02
2023-03-17T05:02:32.603Z,55.02
2023-03-17T05:03:32.519Z,54.82
2023-03-17T05:04:32.597Z,55.02
2023-03-17T05:05:32.496Z,54.71
2023-03-17T05:06:32.486Z,54.79
2023-03-17T05:07:34.125Z,54.58
2023-03-17T05:08:32.462Z,54.48
2023-03-17T05:09:32.453Z,54.79
2023-03-17T05:10:32.857Z,54.91
2023-03-17T05:11:32.452Z,54.82
2023-03-17T05:12:32.422Z,54.91
2023-03-17T05:13:32.416Z,55.12
2023-03-17T05:14:32.398Z,55.02
2023-03-17T05:15:32.388Z,55.32
2023-03-17T05:16:32.449Z,55.23
2023-03-17T05:17:32.368Z,55.53
2023-03-17T05:18:32.354Z,55.32
2023-03-17T05:19:32.349Z,55.32
2023-03-17T05:20:32.770Z,55.23
2023-03-17T05:21:32.326Z,55.25
2023-03-17T05:22:32.312Z,55.45
2023-03-17T05:23:32.307Z,55.53
2023-03-17T05:24:32.293Z,55.02
2023-03-17T05:25:32.281Z,54.91
2023-03-17T05:26:32.270Z,54.82
2023-03-17T05:27:32.261Z,54.48
2023-03-17T05:28:32.262Z,54.18
2023-03-17T05:29:32.241Z,54.05
2023-03-17T05:30:32.600Z,53.74
2023-03-17T05:31:32.219Z,53.74
2023-03-17T05:32:32.295Z,53.64
2023-03-17T05:33:32.199Z,53.64
2023-03-17T05:34:32.198Z,53.74
2023-03-17T05:35:32.194Z,53.51
2023-03-17T05:37:32.159Z,53.21
2023-03-17T05:38:32.142Z,53.10
2023-03-17T05:40:32.392Z,52.90
2023-03-17T05:41:32.114Z,53.00
2023-03-17T05:42:32.109Z,52.90
2023-03-17T05:45:32.064Z,53.13
2023-03-17T05:46:32.184Z,53.21
2023-03-17T05:47:32.048Z,53.10
2023-03-17T05:48:32.032Z,53.10
2023-03-17T05:49:32.024Z,53.00
2023-03-17T05:50:32.295Z,53.10
2023-03-17T05:51:32.014Z,53.00
2023-03-17T05:52:32.007Z,53.21
2023-03-17T05:53:31.979Z,53.31
2023-03-17T05:54:31.965Z,53.44
2023-03-17T05:55:31.956Z,53.64
2023-03-17T05:57:31.939Z,52.90
2023-03-17T05:58:31.926Z,52.80
2023-03-17T05:59:31.921Z,52.90
2023-03-17T06:00:32.354Z,52.80
2023-03-17T06:01:31.893Z,53.00
2023-03-17T06:02:31.942Z,53.51
2023-03-17T06:03:32.003Z,53.31
2023-03-17T06:04:31.860Z,53.72
2023-03-17T06:05:31.846Z,53.64
2023-03-17T06:06:31.834Z,53.74
2023-03-17T06:07:44.574Z,53.94
2023-03-17T06:08:31.838Z,54.15
2023-03-17T06:10:32.167Z,53.85
2023-03-17T06:11:31.782Z,54.15
2023-03-17T06:12:31.769Z,54.15
2023-03-17T06:13:31.774Z,54.48
2023-03-17T06:14:31.747Z,54.58
2023-03-17T06:15:32.076Z,54.82
2023-03-17T06:16:31.732Z,55.20
2023-03-17T06:17:31.721Z,55.02
2023-03-17T06:18:31.703Z,55.12
2023-03-17T06:19:31.695Z,55.23
2023-03-17T06:20:31.683Z,55.53
2023-03-17T06:22:31.659Z,55.63
2023-03-17T06:23:31.659Z,55.74
2023-03-17T06:24:31.664Z,55.53
2023-03-17T06:25:32.098Z,55.23
2023-03-17T06:26:31.616Z,55.20
2023-03-17T06:28:31.594Z,54.89
2023-03-17T06:29:31.582Z,54.89
2023-03-17T06:31:31.587Z,55.07
2023-03-17T06:32:31.591Z,55.04
2023-03-17T06:33:31.541Z,54.94
2023-03-17T06:34:31.534Z,54.91
2023-03-17T06:35:31.971Z,54.43
2023-03-17T06:36:31.504Z,54.13
2023-03-17T06:37:31.496Z,54.43
2023-03-17T06:38:31.481Z,54.10
2023-03-17T06:39:31.473Z,54.41
2023-03-17T06:40:31.479Z,54.30
2023-03-17T06:41:31.450Z,54.38
2023-03-17T06:42:31.456Z,54.35
2023-03-17T06:43:31.438Z,54.28
2023-03-17T06:44:31.417Z,54.48
2023-03-17T06:45:31.720Z,53.87
2023-03-17T06:47:31.407Z,54.35
2023-03-17T06:48:31.381Z,53.82
2023-03-17T06:49:31.363Z,53.52
2023-03-17T06:50:31.351Z,53.72
2023-03-17T06:51:31.342Z,54.23
2023-03-17T06:52:31.329Z,53.92
2023-03-17T06:53:31.321Z,53.72
2023-03-17T06:54:31.308Z,53.82
2023-03-17T06:55:31.464Z,53.72
2023-03-17T06:56:31.304Z,53.49
2023-03-17T06:58:31.277Z,53.36
2023-03-17T06:59:31.259Z,52.93
2023-03-17T07:02:31.221Z,53.24
2023-03-17T07:03:31.211Z,52.91
2023-03-17T07:04:31.298Z,52.93
2023-03-17T07:05:31.439Z,51.91
2023-03-17T07:06:31.188Z,52.70
2023-03-17T07:07:31.173Z,52.60
2023-03-17T07:08:31.205Z,52.09
2023-03-17T07:09:31.152Z,52.07
2023-03-17T07:10:31.231Z,52.37
2023-03-17T07:11:31.143Z,51.74
2023-03-17T07:12:31.156Z,51.13
2023-03-17T07:13:31.100Z,50.90
2023-03-17T07:14:31.097Z,50.92
2023-03-17T07:15:31.324Z,50.92
2023-03-17T07:16:31.137Z,51.23
2023-03-17T07:17:31.064Z,50.92
2023-03-17T07:18:31.046Z,51.23
2023-03-17T07:19:31.040Z,51.56
2023-03-17T07:20:31.065Z,50.85
2023-03-17T07:22:31.000Z,50.83
2023-03-17T07:24:30.982Z,50.92
2023-03-17T07:25:31.349Z,50.80
2023-03-17T07:27:30.947Z,50.19
2023-03-17T07:28:30.965Z,50.59
2023-03-17T07:35:31.089Z,47.72
2023-03-17T07:36:30.846Z,47.61
2023-03-17T07:41:30.812Z,48.82
2023-03-17T07:47:30.744Z,47.94
2023-03-17T07:48:30.717Z,47.41
2023-03-17T07:49:40.794Z,46.88
2023-03-17T07:50:30.691Z,46.17
2023-03-17T07:51:30.694Z,46.08
2023-03-17T07:52:30.675Z,46.56
2023-03-17T07:53:30.660Z,47.19
2023-03-17T07:54:30.646Z,47.39
2023-03-17T07:55:30.871Z,46.96
2023-03-17T07:56:30.647Z,46.74
2023-03-17T07:57:30.651Z,46.03
2023-03-17T07:58:30.601Z,46.05
2023-03-17T07:59:30.594Z,48.38
2023-03-17T08:00:31.030Z,45.85
2023-03-17T08:01:30.608Z,47.09
2023-03-17T08:02:30.565Z,46.99
2023-03-17T08:07:30.513Z,46.84
2023-03-17T08:08:30.490Z,46.82
2023-03-17T08:09:30.520Z,47.30
2023-03-17T08:10:30.918Z,45.89
2023-03-17T08:11:30.461Z,45.28
2023-03-17T08:12:30.448Z,45.38
2023-03-17T08:13:30.440Z,44.78
2023-03-17T08:14:30.455Z,46.84
2023-03-17T08:15:30.420Z,46.69
2023-03-17T08:16:30.505Z,46.05
2023-03-17T08:17:30.427Z,44.83
2023-03-17T08:18:30.422Z,44.23
2023-03-17T08:19:30.417Z,45.36
2023-03-17T08:22:30.346Z,47.24
2023-03-17T08:23:30.332Z,45.22
2023-03-17T08:24:30.319Z,46.45
2023-03-17T08:25:30.311Z,46.94
2023-03-17T08:27:32.537Z,46.19
2023-03-17T08:28:30.365Z,47.04
2023-03-17T08:29:30.266Z,47.60
2023-03-17T08:30:33.254Z,47.02
2023-03-17T08:31:30.385Z,45.78
2023-03-17T08:32:30.366Z,46.69
2023-03-17T08:33:30.223Z,47.28
2023-03-17T08:40:30.612Z,45.48
2023-03-17T08:42:30.122Z,45.46
2023-03-17T08:43:30.116Z,45.53
2023-03-17T08:44:30.103Z,46.56
2023-03-17T08:45:30.341Z,46.44
2023-03-17T08:46:30.146Z,45.91
2023-03-17T08:47:30.068Z,45.33
2023-03-17T08:48:30.077Z,46.13
2023-03-17T08:49:30.048Z,45.78
2023-03-17T08:50:30.331Z,45.70
2023-03-17T08:51:30.023Z,45.85
2023-03-17T08:52:30.016Z,46.74
2023-03-17T08:54:29.993Z,46.84
2023-03-17T08:59:29.940Z,45.20
2023-03-17T09:01:29.960Z,45.58
2023-03-17T09:02:29.953Z,44.65
2023-03-17T09:03:29.894Z,44.45
2023-03-17T09:04:29.915Z,45.18
2023-03-17T09:05:30.314Z,45.36
2023-03-17T09:06:29.868Z,44.73
2023-03-17T09:07:29.886Z,46.06
2023-03-17T09:09:29.834Z,45.52
2023-03-17T09:10:30.391Z,44.47
2023-03-17T09:11:29.831Z,45.28
2023-03-17T09:12:29.798Z,45.48
2023-03-17T09:13:29.785Z,45.46
2023-03-17T09:14:35.277Z,44.87
2023-03-17T09:15:30.013Z,44.65
2023-03-17T09:16:29.861Z,44.86
2023-03-17T09:17:29.742Z,45.82
2023-03-17T09:18:29.731Z,44.91
2023-03-17T09:19:29.723Z,44.21
2023-03-17T09:20:30.174Z,44.91
2023-03-17T09:21:29.695Z,44.43
2023-03-17T09:22:29.731Z,43.78
2023-03-17T09:23:29.699Z,44.41
2023-03-17T09:24:29.710Z,43.68
2023-03-17T09:26:29.686Z,43.89
2023-03-17T09:27:29.641Z,43.76
2023-03-17T09:28:29.629Z,43.42
2023-03-17T09:29:29.614Z,43.66
2023-03-17T09:31:29.652Z,42.65
2023-03-17T09:32:29.614Z,45.62
2023-03-17T09:33:29.565Z,43.86
2023-03-17T09:34:29.555Z,43.42
2023-03-17T09:35:29.561Z,41.69
2023-03-17T09:36:29.555Z,42.47
2023-03-17T09:37:29.523Z,42.91
2023-03-17T09:38:29.512Z,43.16
2023-03-17T09:39:29.499Z,44.99
2023-03-17T09:40:30.127Z,43.50
2023-03-17T09:41:29.475Z,44.73
2023-03-17T09:42:29.467Z,45.32
2023-03-17T09:43:29.454Z,44.63
2023-03-17T09:44:29.465Z,45.94
2023-03-17T09:45:29.431Z,47.05
2023-03-17T09:46:29.459Z,44.99
2023-03-17T09:47:29.410Z,45.60
2023-03-17T09:48:29.404Z,44.87
2023-03-17T09:49:29.389Z,44.14
2023-03-17T09:50:29.753Z,44.77
2023-03-17T09:51:29.373Z,44.18
2023-03-17T09:52:29.381Z,44.59
2023-03-17T09:53:29.345Z,45.72
2023-03-17T09:54:29.348Z,45.58
2023-03-17T09:55:29.834Z,43.86
2023-03-17T09:56:29.317Z,45.11
2023-03-17T09:57:29.317Z,43.76
2023-03-17T09:58:29.292Z,43.13
2023-03-17T09:59:29.281Z,45.45
2023-03-17T10:00:29.398Z,43.12
2023-03-17T10:01:29.299Z,43.32
2023-03-17T10:02:29.256Z,43.94
2023-03-17T10:03:29.235Z,44.22
2023-03-17T10:04:29.228Z,44.18
2023-03-17T10:05:29.727Z,44.36
2023-03-17T10:06:29.208Z,43.35
2023-03-17T10:07:29.193Z,42.43
2023-03-17T10:08:31.899Z,43.40
2023-03-17T10:09:29.197Z,41.89
2023-03-17T10:13:29.135Z,40.48
2023-03-17T10:14:29.126Z,39.78
2023-03-17T10:15:29.118Z,42.35
2023-03-17T10:16:29.162Z,42.59
2023-03-17T10:17:29.122Z,41.57
2023-03-17T10:18:29.084Z,41.58
2023-03-17T10:19:29.078Z,42.79
2023-03-17T10:20:29.079Z,42.70
2023-03-17T10:21:29.044Z,42.59
2023-03-17T10:22:29.033Z,43.88
2023-03-17T10:23:29.027Z,41.02
2023-03-17T10:26:29.006Z,40.04
2023-03-17T10:27:28.979Z,41.05
2023-03-17T10:28:28.982Z,41.69
2023-03-17T10:34:28.902Z,40.90
2023-03-17T10:35:29.340Z,42.71
2023-03-17T10:36:28.883Z,43.01
2023-03-17T10:37:28.874Z,42.21
2023-03-17T10:38:28.867Z,41.27
2023-03-17T10:40:29.273Z,41.19
2023-03-17T10:41:28.828Z,39.36
2023-03-17T10:42:28.824Z,38.48
2023-03-17T10:43:28.808Z,38.98
2023-03-17T10:45:28.797Z,39.12
2023-03-17T10:46:28.842Z,40.72
2023-03-17T10:47:28.780Z,40.04
2023-03-17T10:48:28.816Z,40.18
2023-03-17T10:49:28.741Z,41.21
2023-03-17T10:51:28.722Z,41.91
2023-03-17T10:52:28.716Z,41.72
2023-03-17T10:53:28.717Z,42.35
2023-03-17T10:54:28.705Z,42.25
2023-03-17T10:55:28.681Z,41.72
2023-03-17T10:56:28.703Z,44.32
2023-03-17T10:57:28.663Z,43.68
2023-03-17T10:58:28.657Z,41.51
2023-03-17T10:59:28.711Z,44.00
2023-03-17T11:00:28.888Z,42.15
2023-03-17T11:01:28.655Z,41.63
2023-03-17T11:02:28.609Z,40.22
2023-03-17T11:03:28.615Z,40.64
2023-03-17T11:05:28.569Z,41.47
2023-03-17T11:06:28.577Z,43.28
2023-03-17T11:08:28.540Z,41.71
2023-03-17T11:09:28.529Z,42.79
2023-03-17T11:10:28.866Z,41.89
2023-03-17T11:11:28.510Z,43.07
2023-03-17T11:12:28.541Z,41.49
2023-03-17T11:13:28.486Z,43.51
2023-03-17T11:16:28.478Z,41.38
2023-03-17T11:17:28.443Z,42.19
2023-03-17T11:18:28.435Z,42.29
2023-03-17T11:24:28.371Z,43.71
2023-03-17T11:25:28.358Z,42.91
2023-03-17T11:27:28.339Z,43.28
2023-03-17T11:28:28.356Z,43.79
2023-03-17T11:29:28.315Z,43.29
2023-03-17T11:30:28.348Z,43.78
2023-03-17T11:31:28.321Z,42.47
2023-03-17T11:32:28.386Z,42.09
2023-03-17T11:33:28.276Z,43.17
2023-03-17T11:34:28.276Z,43.56
2023-03-17T11:35:28.254Z,40.72
2023-03-17T11:36:28.242Z,40.58
2023-03-17T11:37:28.230Z,39.92
2023-03-17T11:38:28.227Z,39.36
2023-03-17T11:39:28.208Z,40.99
2023-03-17T11:40:28.197Z,39.50
2023-03-17T11:42:28.177Z,39.28
2023-03-17T11:43:28.205Z,40.30
2023-03-17T11:44:28.178Z,40.10
2023-03-17T11:45:28.146Z,40.06
2023-03-17T11:46:28.165Z,39.95
2023-03-17T11:47:28.118Z,40.02
2023-03-17T11:48:28.153Z,41.67
2023-03-17T11:49:28.102Z,41.77
2023-03-17T11:50:28.086Z,41.73
2023-03-17T11:51:28.075Z,40.64
2023-03-17T11:52:28.075Z,40.96
2023-03-17T11:53:28.061Z,40.14
2023-03-17T11:54:28.056Z,40.10
2023-03-17T11:55:28.034Z,40.19
2023-03-17T11:56:28.023Z,39.69
2023-03-17T11:57:28.022Z,39.18
2023-03-17T11:58:28.004Z,39.78
2023-03-17T11:59:27.996Z,41.19
2023-03-17T12:00:27.996Z,38.97
2023-03-17T12:01:27.967Z,38.83
2023-03-17T12:02:27.956Z,39.31
2023-03-17T12:03:28.029Z,39.29
2023-03-17T12:04:28.002Z,39.09
2023-03-17T12:05:27.923Z,39.89
2023-03-17T12:07:27.899Z,39.55
2023-03-17T12:09:27.877Z,38.97
2023-03-17T12:10:27.870Z,40.35
2023-03-17T12:11:27.854Z,38.53
2023-03-17T12:12:27.847Z,38.47
2023-03-17T12:13:27.836Z,37.47
2023-03-17T12:14:27.823Z,36.76
2023-03-17T12:15:27.843Z,38.01
2023-03-17T12:16:27.822Z,39.21
2023-03-17T12:18:27.785Z,39.11
2023-03-17T12:19:27.768Z,39.73
2023-03-17T12:20:27.764Z,40.53
2023-03-17T12:21:27.745Z,39.95
2023-03-17T12:22:27.736Z,40.53
2023-03-17T12:23:27.723Z,38.51
2023-03-17T12:24:27.714Z,38.61
2023-03-17T12:25:27.731Z,39.06
2023-03-17T12:26:27.693Z,39.91
2023-03-17T12:27:27.679Z,41.43
2023-03-17T12:28:27.671Z,43.11
2023-03-17T12:29:27.659Z,39.36
2023-03-17T12:30:27.650Z,39.05
2023-03-17T12:33:27.625Z,42.29
2023-03-17T12:34:27.605Z,40.77
2023-03-17T12:35:27.598Z,39.14
2023-03-17T12:37:27.594Z,39.01
2023-03-17T12:38:27.561Z,40.03
2023-03-17T12:39:27.550Z,40.63
2023-03-17T12:40:27.590Z,39.21
2023-03-17T12:41:27.529Z,38.17
2023-03-17T12:42:27.519Z,37.47
2023-03-17T12:43:27.507Z,38.85
2023-03-17T12:44:27.501Z,37.54
2023-03-17T12:45:27.499Z,37.90
2023-03-17T12:46:27.574Z,35.62
2023-03-17T12:47:27.464Z,37.02
2023-03-17T12:48:27.472Z,35.92
2023-03-17T12:49:27.445Z,38.15
2023-03-17T12:50:27.429Z,39.59
2023-03-17T12:55:27.384Z,40.14
2023-03-17T12:56:27.365Z,39.66
2023-03-17T12:57:27.353Z,40.45
2023-03-17T12:58:27.344Z,39.92
2023-03-17T12:59:27.334Z,40.33
2023-03-17T13:00:27.323Z,40.06
2023-03-17T13:01:27.366Z,40.19
2023-03-17T13:02:27.299Z,41.39
2023-03-17T13:03:27.349Z,41.25
2023-03-17T13:04:27.412Z,40.29
2023-03-17T13:05:27.266Z,39.37
2023-03-17T13:06:27.254Z,39.35
2023-03-17T13:11:27.250Z,38.81
2023-03-17T13:13:27.179Z,40.85
2023-03-17T13:14:27.190Z,40.14
2023-03-17T13:15:27.157Z,40.27
2023-03-17T13:16:27.194Z,41.25
2023-03-17T13:17:27.138Z,41.55
2023-03-17T13:18:27.130Z,40.45
2023-03-17T13:19:27.123Z,40.97
2023-03-17T13:20:27.124Z,40.67
2023-03-17T13:21:27.090Z,41.08
2023-03-17T13:22:27.079Z,40.67
2023-03-17T13:23:27.067Z,40.77
2023-03-17T13:24:27.056Z,39.77
2023-03-17T13:25:27.045Z,39.78
2023-03-17T13:26:27.033Z,40.58
2023-03-17T13:27:27.023Z,40.69
2023-03-17T13:28:27.011Z,40.28
2023-03-17T13:29:27.008Z,41.29
2023-03-17T13:30:27.082Z,41.00
2023-03-17T13:31:27.085Z,40.69
2023-03-17T13:32:27.066Z,40.80
2023-03-17T13:33:26.959Z,41.08
2023-03-17T13:34:26.946Z,40.17
2023-03-17T13:35:26.946Z,40.95
2023-03-17T13:36:26.944Z,39.11
2023-03-17T13:37:26.916Z,39.11
2023-03-17T13:38:26.905Z,40.21
2023-03-17T13:39:26.910Z,40.45
2023-03-17T13:40:26.888Z,41.59
2023-03-17T13:41:26.892Z,42.79
2023-03-17T13:42:26.862Z,41.19
2023-03-17T13:43:26.852Z,41.19
2023-03-17T13:44:26.839Z,40.91
2023-03-17T13:45:26.836Z,43.11
2023-03-17T13:46:26.906Z,42.81
2023-03-17T13:47:26.809Z,41.81
2023-03-17T13:48:26.797Z,41.69
2023-03-17T13:49:26.821Z,43.19
2023-03-17T13:50:26.777Z,41.31
2023-03-17T13:53:26.744Z,42.07
2023-03-17T13:54:26.742Z,41.39
2023-03-17T13:55:26.827Z,42.41
2023-03-17T13:56:26.709Z,41.91
2023-03-17T13:57:26.727Z,41.29
2023-03-17T13:59:26.679Z,40.95
2023-03-17T14:00:26.713Z,41.35
2023-03-17T14:01:26.661Z,41.37
2023-03-17T14:03:26.712Z,42.99
2023-03-17T14:04:26.630Z,41.71
2023-03-17T14:05:26.613Z,42.29
2023-03-17T14:06:26.601Z,42.91
2023-03-17T14:07:26.592Z,43.61
2023-03-17T14:08:26.601Z,43.71
2023-03-17T14:09:26.572Z,41.79
2023-03-17T14:10:26.556Z,41.91
2023-03-17T14:11:26.552Z,42.61
2023-03-17T14:12:26.538Z,42.39
2023-03-17T14:13:26.527Z,43.09
2023-03-17T14:14:32.845Z,42.17
2023-03-17T14:15:26.507Z,43.19
2023-03-17T14:18:26.475Z,43.11
2023-03-17T14:19:26.466Z,42.91
2023-03-17T14:21:26.450Z,42.93
2023-03-17T14:23:26.422Z,43.25
2023-03-17T14:24:26.445Z,43.25
2023-03-17T14:25:26.405Z,42.03
2023-03-17T14:26:26.390Z,42.31
2023-03-17T14:27:26.380Z,42.29
2023-03-17T14:28:26.360Z,42.63
2023-03-17T14:31:26.395Z,43.43
2023-03-17T14:32:26.605Z,43.03
2023-03-17T14:33:26.310Z,42.91
2023-03-17T14:34:26.297Z,42.91
2023-03-17T14:35:26.285Z,42.51
2023-03-17T14:36:26.270Z,43.21
2023-03-17T14:37:26.263Z,43.92
2023-03-17T14:38:26.257Z,43.09
2023-03-17T14:39:26.243Z,41.97
2023-03-17T14:41:26.222Z,42.39
2023-03-17T14:42:26.207Z,43.17
2023-03-17T14:43:26.210Z,41.87
2023-03-17T14:44:26.186Z,42.37
2023-03-17T14:45:26.175Z,42.97
2023-03-17T14:46:26.258Z,42.15
2023-03-17T14:47:26.153Z,43.37
2023-03-17T14:48:26.143Z,42.21
2023-03-17T14:49:26.155Z,42.81
2023-03-17T14:50:26.120Z,44.31
2023-03-17T14:51:26.116Z,42.49
2023-03-17T14:52:26.098Z,42.69
2023-03-17T14:53:26.090Z,42.09
2023-03-17T14:54:26.075Z,41.47
2023-03-17T14:55:26.068Z,42.07
2023-03-17T14:56:26.077Z,42.09
2023-03-17T14:57:26.049Z,41.99
2023-03-17T14:58:26.030Z,42.41
2023-03-17T15:00:26.013Z,42.29
2023-03-17T15:01:28.466Z,42.27
2023-03-17T15:02:26.031Z,42.15
2023-03-17T15:04:25.971Z,43.03
2023-03-17T15:05:25.958Z,41.57
2023-03-17T15:06:25.946Z,42.49
2023-03-17T15:07:25.936Z,42.89
2023-03-17T15:08:25.924Z,43.95
2023-03-17T15:09:25.915Z,41.43
2023-03-17T15:10:25.908Z,42.31
2023-03-17T15:11:25.895Z,40.47
2023-03-17T15:12:25.912Z,39.95
2023-03-17T15:13:25.872Z,40.15
2023-03-17T15:14:25.882Z,39.89
2023-03-17T15:15:25.854Z,41.61
2023-03-17T15:16:25.886Z,41.53
2023-03-17T15:17:25.830Z,42.25
2023-03-17T15:18:25.814Z,41.55
2023-03-17T15:19:27.656Z,41.37
2023-03-17T15:20:25.805Z,43.47
2023-03-17T15:21:25.783Z,41.81
2023-03-17T15:22:25.790Z,42.11
2023-03-17T15:23:25.771Z,43.21
2023-03-17T15:24:25.754Z,42.93
2023-03-17T15:25:28.824Z,43.69
2023-03-17T15:26:25.732Z,44.01
2023-03-17T15:27:25.719Z,42.81
2023-03-17T15:28:25.736Z,43.49
2023-03-17T15:29:25.700Z,43.39
2023-03-17T15:30:27.440Z,43.71
2023-03-17T15:31:28.424Z,43.49
2023-03-17T15:32:25.664Z,45.09
2023-03-17T15:35:25.636Z,43.09
2023-03-17T15:37:26.658Z,46.30
2023-03-17T15:38:25.603Z,43.37
2023-03-17T15:39:25.591Z,42.55
2023-03-17T15:40:25.581Z,42.97
2023-03-17T15:47:25.514Z,45.08
2023-03-17T15:48:25.521Z,44.07
2023-03-17T15:49:26.922Z,44.36
2023-03-17T15:50:25.471Z,44.26
2023-03-17T15:51:25.456Z,44.48
2023-03-17T15:52:25.445Z,43.35
2023-03-17T15:53:25.433Z,43.25
2023-03-17T15:54:25.422Z,43.76